sensor_id;sensor_type;location;lat;lon;timestamp;pressure;altitude;pressure_sealevel;temperature;humidity
70488;BME280;57976;48.174;16.370;2024-02-14T00:01:04;99849.42;;;6.00;89.72
70488;BME280;57976;48.174;16.370;2024-02-14T00:03:09;99845.03;;;6.00;89.41
70488;BME280;57976;48.174;16.370;2024-02-14T00:05:14;99847.73;;;5.99;89.57
70488;BME280;57976;48.174;16.370;2024-02-14T00:07:19;99844.94;;;6.01;89.50
70488;BME280;57976;48.174;16.370;2024-02-14T00:09:24;99846.86;;;5.99;89.38
70488;BME280;57976;48.174;16.370;2024-02-14T00:11:29;99844.33;;;5.98;89.38
70488;BME280;57976;48.174;16.370;2024-02-14T00:13:33;99848.30;;;5.99;89.84
70488;BME280;57976;48.174;16.370;2024-02-14T00:15:38;99852.31;;;6.01;90.18
70488;BME280;57976;48.174;16.370;2024-02-14T00:17:43;99846.95;;;6.03;90.27
70488;BME280;57976;48.174;16.370;2024-02-14T00:19:48;99848.77;;;6.06;90.02
70488;BME280;57976;48.174;16.370;2024-02-14T00:21:53;99845.80;;;6.09;89.94
70488;BME280;57976;48.174;16.370;2024-02-14T00:23:58;99848.22;;;6.11;89.89
70488;BME280;57976;48.174;16.370;2024-02-14T00:26:03;99848.03;;;6.13;89.84
70488;BME280;57976;48.174;16.370;2024-02-14T00:28:08;99849.71;;;6.15;89.88
70488;BME280;57976;48.174;16.370;2024-02-14T00:30:13;99847.52;;;6.16;89.83
70488;BME280;57976;48.174;16.370;2024-02-14T00:32:18;99848.38;;;6.18;89.94
70488;BME280;57976;48.174;16.370;2024-02-14T00:34:23;99851.39;;;6.20;89.52
70488;BME280;57976;48.174;16.370;2024-02-14T00:36:28;99851.00;;;6.21;89.48
70488;BME280;57976;48.174;16.370;2024-02-14T00:38:33;99850.81;;;6.22;89.51
70488;BME280;57976;48.174;16.370;2024-02-14T00:40:37;99851.58;;;6.24;89.52
70488;BME280;57976;48.174;16.370;2024-02-14T00:42:42;99853.52;;;6.28;89.52
70488;BME280;57976;48.174;16.370;2024-02-14T00:44:47;99854.70;;;6.28;89.23
70488;BME280;57976;48.174;16.370;2024-02-14T00:46:57;99855.92;;;6.30;89.06
70488;BME280;57976;48.174;16.370;2024-02-14T00:49:01;99857.13;;;6.30;89.17
70488;BME280;57976;48.174;16.370;2024-02-14T00:51:06;99860.48;;;6.30;89.35
70488;BME280;57976;48.174;16.370;2024-02-14T00:53:11;99863.64;;;6.31;88.84
70488;BME280;57976;48.174;16.370;2024-02-14T00:55:16;99866.98;;;6.31;89.03
70488;BME280;57976;48.174;16.370;2024-02-14T00:57:21;99869.36;;;6.30;88.61
70488;BME280;57976;48.174;16.370;2024-02-14T00:59:25;99868.64;;;6.27;88.65
70488;BME280;57976;48.174;16.370;2024-02-14T01:01:30;99875.18;;;6.23;88.86
70488;BME280;57976;48.174;16.370;2024-02-14T01:03:35;99870.44;;;6.18;88.28
70488;BME280;57976;48.174;16.370;2024-02-14T01:05:39;99874.72;;;6.14;88.81
70488;BME280;57976;48.174;16.370;2024-02-14T01:07:44;99871.45;;;6.10;89.31
70488;BME280;57976;48.174;16.370;2024-02-14T01:09:49;99872.34;;;6.10;89.56
70488;BME280;57976;48.174;16.370;2024-02-14T01:11:53;99870.80;;;6.11;89.57
70488;BME280;57976;48.174;16.370;2024-02-14T01:13:58;99873.87;;;6.11;89.50
70488;BME280;57976;48.174;16.370;2024-02-14T01:16:04;99870.48;;;6.07;89.44
70488;BME280;57976;48.174;16.370;2024-02-14T01:18:09;99873.48;;;6.06;89.51
70488;BME280;57976;48.174;16.370;2024-02-14T01:20:13;99872.02;;;6.03;89.50
70488;BME280;57976;48.174;16.370;2024-02-14T01:22:18;99871.74;;;5.99;89.41
70488;BME280;57976;48.174;16.370;2024-02-14T01:24:23;99869.91;;;5.96;89.72
70488;BME280;57976;48.174;16.370;2024-02-14T01:26:28;99869.51;;;5.95;89.92
70488;BME280;57976;48.174;16.370;2024-02-14T01:28:33;99870.09;;;5.93;89.81
70488;BME280;57976;48.174;16.370;2024-02-14T01:30:38;99870.08;;;5.89;90.37
70488;BME280;57976;48.174;16.370;2024-02-14T01:32:42;99864.21;;;5.86;90.46
70488;BME280;57976;48.174;16.370;2024-02-14T01:34:47;99864.26;;;5.82;90.78
70488;BME280;57976;48.174;16.370;2024-02-14T01:36:52;99863.09;;;5.80;90.72
70488;BME280;57976;48.174;16.370;2024-02-14T01:38:57;99862.27;;;5.78;91.04
70488;BME280;57976;48.174;16.370;2024-02-14T01:41:01;99865.85;;;5.77;91.18
70488;BME280;57976;48.174;16.370;2024-02-14T01:43:06;99862.89;;;5.75;91.34
70488;BME280;57976;48.174;16.370;2024-02-14T01:45:11;99862.26;;;5.73;91.26
70488;BME280;57976;48.174;16.370;2024-02-14T01:47:16;99863.06;;;5.72;91.82
70488;BME280;57976;48.174;16.370;2024-02-14T01:49:21;99857.95;;;5.72;92.00
70488;BME280;57976;48.174;16.370;2024-02-14T01:51:26;99858.51;;;5.72;92.12
70488;BME280;57976;48.174;16.370;2024-02-14T01:53:31;99854.88;;;5.71;92.14
70488;BME280;57976;48.174;16.370;2024-02-14T01:55:36;99855.59;;;5.71;92.18
70488;BME280;57976;48.174;16.370;2024-02-14T01:57:41;99853.64;;;5.69;92.33
70488;BME280;57976;48.174;16.370;2024-02-14T01:59:46;99860.41;;;5.69;92.72
70488;BME280;57976;48.174;16.370;2024-02-14T02:01:51;99858.16;;;5.68;92.40
70488;BME280;57976;48.174;16.370;2024-02-14T02:03:56;99853.44;;;5.70;92.32
70488;BME280;57976;48.174;16.370;2024-02-14T02:06:01;99850.55;;;5.70;92.66
70488;BME280;57976;48.174;16.370;2024-02-14T02:08:09;99850.88;;;5.70;92.31
70488;BME280;57976;48.174;16.370;2024-02-14T02:10:14;99845.33;;;5.69;92.38
70488;BME280;57976;48.174;16.370;2024-02-14T02:12:18;99844.79;;;5.71;92.76
70488;BME280;57976;48.174;16.370;2024-02-14T02:14:23;99846.40;;;5.73;92.58
70488;BME280;57976;48.174;16.370;2024-02-14T02:16:28;99847.17;;;5.72;92.54
70488;BME280;57976;48.174;16.370;2024-02-14T02:18:33;99847.61;;;5.73;92.92
70488;BME280;57976;48.174;16.370;2024-02-14T02:20:38;99849.46;;;5.72;92.64
70488;BME280;57976;48.174;16.370;2024-02-14T02:22:46;99847.70;;;5.69;92.82
70488;BME280;57976;48.174;16.370;2024-02-14T02:24:50;99847.98;;;5.66;92.75
70488;BME280;57976;48.174;16.370;2024-02-14T02:26:55;99846.57;;;5.62;92.75
70488;BME280;57976;48.174;16.370;2024-02-14T02:29:00;99849.51;;;5.62;93.07
70488;BME280;57976;48.174;16.370;2024-02-14T02:31:05;99847.61;;;5.59;92.70
70488;BME280;57976;48.174;16.370;2024-02-14T02:33:09;99848.11;;;5.56;92.46
70488;BME280;57976;48.174;16.370;2024-02-14T02:35:14;99849.64;;;5.54;92.52
70488;BME280;57976;48.174;16.370;2024-02-14T02:37:19;99851.52;;;5.51;92.73
70488;BME280;57976;48.174;16.370;2024-02-14T02:39:24;99860.48;;;5.49;93.29
70488;BME280;57976;48.174;16.370;2024-02-14T02:41:28;99863.77;;;5.46;93.18
70488;BME280;57976;48.174;16.370;2024-02-14T02:43:33;99862.44;;;5.44;93.44
70488;BME280;57976;48.174;16.370;2024-02-14T02:45:38;99866.29;;;5.42;93.74
70488;BME280;57976;48.174;16.370;2024-02-14T02:47:43;99868.27;;;5.42;94.01
70488;BME280;57976;48.174;16.370;2024-02-14T02:49:48;99870.83;;;5.39;93.93
70488;BME280;57976;48.174;16.370;2024-02-14T02:51:53;99872.00;;;5.38;94.36
70488;BME280;57976;48.174;16.370;2024-02-14T02:53:57;99869.56;;;5.36;94.21
70488;BME280;57976;48.174;16.370;2024-02-14T02:56:02;99869.79;;;5.36;94.33
70488;BME280;57976;48.174;16.370;2024-02-14T02:58:07;99870.04;;;5.35;94.47
70488;BME280;57976;48.174;16.370;2024-02-14T03:00:13;99870.81;;;5.34;95.12
70488;BME280;57976;48.174;16.370;2024-02-14T03:02:18;99867.00;;;5.32;95.18
70488;BME280;57976;48.174;16.370;2024-02-14T03:04:23;99876.48;;;5.32;95.15
70488;BME280;57976;48.174;16.370;2024-02-14T03:06:44;99877.56;;;5.30;95.29
70488;BME280;57976;48.174;16.370;2024-02-14T03:08:49;99879.27;;;5.29;95.57
70488;BME280;57976;48.174;16.370;2024-02-14T03:10:54;99880.90;;;5.27;95.19
70488;BME280;57976;48.174;16.370;2024-02-14T03:12:58;99888.58;;;5.26;95.71
70488;BME280;57976;48.174;16.370;2024-02-14T03:15:04;99888.23;;;5.23;96.01
70488;BME280;57976;48.174;16.370;2024-02-14T03:17:09;99891.27;;;5.23;95.92
70488;BME280;57976;48.174;16.370;2024-02-14T03:19:14;99891.00;;;5.22;95.49
70488;BME280;57976;48.174;16.370;2024-02-14T03:21:19;99890.52;;;5.20;95.63
70488;BME280;57976;48.174;16.370;2024-02-14T03:23:23;99891.81;;;5.20;95.81
70488;BME280;57976;48.174;16.370;2024-02-14T03:25:28;99891.52;;;5.21;95.83
70488;BME280;57976;48.174;16.370;2024-02-14T03:27:33;99896.09;;;5.19;95.95
70488;BME280;57976;48.174;16.370;2024-02-14T03:29:38;99898.09;;;5.17;96.10
70488;BME280;57976;48.174;16.370;2024-02-14T03:31:42;99898.85;;;5.16;96.30
70488;BME280;57976;48.174;16.370;2024-02-14T03:33:47;99900.61;;;5.18;96.41
70488;BME280;57976;48.174;16.370;2024-02-14T03:35:52;99899.60;;;5.19;96.38
70488;BME280;57976;48.174;16.370;2024-02-14T03:37:57;99900.31;;;5.23;96.71
70488;BME280;57976;48.174;16.370;2024-02-14T03:40:01;99899.63;;;5.24;96.46
70488;BME280;57976;48.174;16.370;2024-02-14T03:42:06;99904.93;;;5.28;96.77
70488;BME280;57976;48.174;16.370;2024-02-14T03:44:11;99906.14;;;5.30;96.85
70488;BME280;57976;48.174;16.370;2024-02-14T03:46:16;99904.14;;;5.34;96.73
70488;BME280;57976;48.174;16.370;2024-02-14T03:48:20;99901.45;;;5.38;96.86
70488;BME280;57976;48.174;16.370;2024-02-14T03:50:25;99905.45;;;5.38;96.17
70488;BME280;57976;48.174;16.370;2024-02-14T03:52:30;99905.05;;;5.39;96.40
70488;BME280;57976;48.174;16.370;2024-02-14T03:54:35;99904.05;;;5.40;96.42
70488;BME280;57976;48.174;16.370;2024-02-14T03:56:39;99902.04;;;5.41;96.31
70488;BME280;57976;48.174;16.370;2024-02-14T03:58:44;99904.98;;;5.41;96.62
70488;BME280;57976;48.174;16.370;2024-02-14T04:00:49;99905.95;;;5.40;96.56
70488;BME280;57976;48.174;16.370;2024-02-14T04:02:54;99909.46;;;5.40;96.10
70488;BME280;57976;48.174;16.370;2024-02-14T04:04:58;99911.55;;;5.41;96.00
70488;BME280;57976;48.174;16.370;2024-02-14T04:07:04;99913.48;;;5.41;96.31
70488;BME280;57976;48.174;16.370;2024-02-14T04:09:09;99914.47;;;5.42;96.64
70488;BME280;57976;48.174;16.370;2024-02-14T04:11:14;99913.25;;;5.42;96.41
70488;BME280;57976;48.174;16.370;2024-02-14T04:13:19;99914.63;;;5.42;96.33
70488;BME280;57976;48.174;16.370;2024-02-14T04:15:24;99913.91;;;5.43;96.59
70488;BME280;57976;48.174;16.370;2024-02-14T04:17:28;99911.48;;;5.43;96.15
70488;BME280;57976;48.174;16.370;2024-02-14T04:19:33;99911.03;;;5.42;96.09
70488;BME280;57976;48.174;16.370;2024-02-14T04:21:38;99914.88;;;5.41;96.14
70488;BME280;57976;48.174;16.370;2024-02-14T04:23:43;99914.09;;;5.40;96.26
70488;BME280;57976;48.174;16.370;2024-02-14T04:25:48;99910.61;;;5.39;96.51
70488;BME280;57976;48.174;16.370;2024-02-14T04:27:52;99910.86;;;5.39;96.24
70488;BME280;57976;48.174;16.370;2024-02-14T04:29:57;99912.34;;;5.40;96.77
70488;BME280;57976;48.174;16.370;2024-02-14T04:32:02;99913.58;;;5.41;96.55
70488;BME280;57976;48.174;16.370;2024-02-14T04:34:07;99910.09;;;5.43;96.91
70488;BME280;57976;48.174;16.370;2024-02-14T04:36:12;99908.08;;;5.44;96.58
70488;BME280;57976;48.174;16.370;2024-02-14T04:38:16;99906.49;;;5.44;96.39
70488;BME280;57976;48.174;16.370;2024-02-14T04:40:21;99902.15;;;5.43;96.53
70488;BME280;57976;48.174;16.370;2024-02-14T04:42:26;99902.14;;;5.43;96.38
70488;BME280;57976;48.174;16.370;2024-02-14T04:44:31;99901.52;;;5.42;96.60
70488;BME280;57976;48.174;16.370;2024-02-14T04:46:36;99902.19;;;5.43;96.50
70488;BME280;57976;48.174;16.370;2024-02-14T04:48:41;99902.66;;;5.43;96.59
70488;BME280;57976;48.174;16.370;2024-02-14T04:50:46;99901.90;;;5.44;96.62
70488;BME280;57976;48.174;16.370;2024-02-14T04:52:50;99902.50;;;5.45;96.58
70488;BME280;57976;48.174;16.370;2024-02-14T04:54:55;99904.67;;;5.46;96.55
70488;BME280;57976;48.174;16.370;2024-02-14T04:57:00;99901.56;;;5.49;96.60
70488;BME280;57976;48.174;16.370;2024-02-14T04:59:07;99896.48;;;5.50;96.85
70488;BME280;57976;48.174;16.370;2024-02-14T05:01:11;99901.66;;;5.51;96.62
70488;BME280;57976;48.174;16.370;2024-02-14T05:03:16;99896.62;;;5.52;96.29
70488;BME280;57976;48.174;16.370;2024-02-14T05:05:21;99895.80;;;5.53;96.52
70488;BME280;57976;48.174;16.370;2024-02-14T05:07:29;99898.06;;;5.57;96.60
70488;BME280;57976;48.174;16.370;2024-02-14T05:09:34;99901.62;;;5.60;96.51
70488;BME280;57976;48.174;16.370;2024-02-14T05:11:39;99904.56;;;5.64;96.22
70488;BME280;57976;48.174;16.370;2024-02-14T05:13:44;99900.41;;;5.68;96.38
70488;BME280;57976;48.174;16.370;2024-02-14T05:15:49;99901.71;;;5.75;96.16
70488;BME280;57976;48.174;16.370;2024-02-14T05:17:54;99898.41;;;5.81;96.03
70488;BME280;57976;48.174;16.370;2024-02-14T05:19:59;99897.80;;;5.85;95.81
70488;BME280;57976;48.174;16.370;2024-02-14T05:22:03;99894.89;;;5.90;95.64
70488;BME280;57976;48.174;16.370;2024-02-14T05:24:08;99900.41;;;5.96;95.68
70488;BME280;57976;48.174;16.370;2024-02-14T05:26:13;99899.10;;;5.99;94.75
70488;BME280;57976;48.174;16.370;2024-02-14T05:28:18;99900.38;;;6.00;94.58
70488;BME280;57976;48.174;16.370;2024-02-14T05:30:22;99901.46;;;6.01;94.49
70488;BME280;57976;48.174;16.370;2024-02-14T05:32:27;99904.35;;;6.01;94.36
70488;BME280;57976;48.174;16.370;2024-02-14T05:34:32;99910.49;;;6.01;94.29
70488;BME280;57976;48.174;16.370;2024-02-14T05:36:37;99911.12;;;6.00;94.22
70488;BME280;57976;48.174;16.370;2024-02-14T05:38:42;99914.22;;;5.99;93.72
70488;BME280;57976;48.174;16.370;2024-02-14T05:40:46;99912.42;;;5.96;93.72
70488;BME280;57976;48.174;16.370;2024-02-14T05:42:51;99917.30;;;5.96;93.90
70488;BME280;57976;48.174;16.370;2024-02-14T05:44:56;99915.83;;;5.95;93.40
70488;BME280;57976;48.174;16.370;2024-02-14T05:47:01;99918.84;;;5.93;93.89
70488;BME280;57976;48.174;16.370;2024-02-14T05:49:06;99923.52;;;5.91;93.21
70488;BME280;57976;48.174;16.370;2024-02-14T05:51:11;99920.77;;;5.87;93.20
70488;BME280;57976;48.174;16.370;2024-02-14T05:53:16;99922.55;;;5.87;92.92
70488;BME280;57976;48.174;16.370;2024-02-14T05:55:20;99925.24;;;5.86;92.99
70488;BME280;57976;48.174;16.370;2024-02-14T05:57:26;99925.89;;;5.87;93.05
70488;BME280;57976;48.174;16.370;2024-02-14T05:59:31;99933.78;;;5.89;93.34
70488;BME280;57976;48.174;16.370;2024-02-14T06:01:35;99933.58;;;5.87;92.97
70488;BME280;57976;48.174;16.370;2024-02-14T06:03:42;99936.62;;;5.87;93.19
70488;BME280;57976;48.174;16.370;2024-02-14T06:05:47;99940.64;;;5.81;93.08
70488;BME280;57976;48.174;16.370;2024-02-14T06:07:52;99938.24;;;5.77;92.98
70488;BME280;57976;48.174;16.370;2024-02-14T06:09:56;99938.41;;;5.72;93.12
70488;BME280;57976;48.174;16.370;2024-02-14T06:12:01;99941.43;;;5.67;93.42
70488;BME280;57976;48.174;16.370;2024-02-14T06:14:06;99946.40;;;5.63;93.78
70488;BME280;57976;48.174;16.370;2024-02-14T06:16:11;99949.88;;;5.64;94.04
70488;BME280;57976;48.174;16.370;2024-02-14T06:18:16;99950.14;;;5.65;94.11
70488;BME280;57976;48.174;16.370;2024-02-14T06:20:21;99955.34;;;5.65;94.28
70488;BME280;57976;48.174;16.370;2024-02-14T06:22:26;99954.41;;;5.66;94.55
70488;BME280;57976;48.174;16.370;2024-02-14T06:24:33;99951.05;;;5.68;94.58
70488;BME280;57976;48.174;16.370;2024-02-14T06:26:38;99951.08;;;5.66;94.30
70488;BME280;57976;48.174;16.370;2024-02-14T06:28:43;99952.21;;;5.62;94.21
70488;BME280;57976;48.174;16.370;2024-02-14T06:30:48;99953.05;;;5.62;94.88
70488;BME280;57976;48.174;16.370;2024-02-14T06:32:52;99955.27;;;5.64;94.99
70488;BME280;57976;48.174;16.370;2024-02-14T06:34:58;99958.92;;;5.67;95.30
70488;BME280;57976;48.174;16.370;2024-02-14T06:37:03;99966.42;;;5.69;95.32
70488;BME280;57976;48.174;16.370;2024-02-14T06:39:08;99973.59;;;5.75;95.42
70488;BME280;57976;48.174;16.370;2024-02-14T06:41:13;99971.52;;;5.78;96.00
70488;BME280;57976;48.174;16.370;2024-02-14T06:43:18;99972.52;;;5.80;95.57
70488;BME280;57976;48.174;16.370;2024-02-14T06:45:22;99975.84;;;5.82;95.01
70488;BME280;57976;48.174;16.370;2024-02-14T06:47:27;99972.11;;;5.84;95.43
70488;BME280;57976;48.174;16.370;2024-02-14T06:49:32;99971.98;;;5.87;94.86
70488;BME280;57976;48.174;16.370;2024-02-14T06:51:37;99978.16;;;5.87;94.12
70488;BME280;57976;48.174;16.370;2024-02-14T06:53:41;99983.48;;;5.81;93.38
70488;BME280;57976;48.174;16.370;2024-02-14T06:55:46;99986.81;;;5.73;93.21
70488;BME280;57976;48.174;16.370;2024-02-14T06:57:54;99988.13;;;5.67;93.39
70488;BME280;57976;48.174;16.370;2024-02-14T06:59:58;99993.32;;;5.65;94.39
70488;BME280;57976;48.174;16.370;2024-02-14T07:02:03;99989.13;;;5.64;94.27
70488;BME280;57976;48.174;16.370;2024-02-14T07:04:17;99990.43;;;5.65;93.68
70488;BME280;57976;48.174;16.370;2024-02-14T07:06:22;99987.30;;;5.67;94.17
70488;BME280;57976;48.174;16.370;2024-02-14T07:08:27;99990.58;;;5.69;94.29
70488;BME280;57976;48.174;16.370;2024-02-14T07:10:32;99986.15;;;5.68;93.81
70488;BME280;57976;48.174;16.370;2024-02-14T07:12:37;99992.36;;;5.65;93.96
70488;BME280;57976;48.174;16.370;2024-02-14T07:14:41;99992.28;;;5.66;94.07
70488;BME280;57976;48.174;16.370;2024-02-14T07:16:46;99988.38;;;5.66;93.81
70488;BME280;57976;48.174;16.370;2024-02-14T07:18:51;99991.70;;;5.70;94.21
70488;BME280;57976;48.174;16.370;2024-02-14T07:20:56;99991.68;;;5.70;93.84
70488;BME280;57976;48.174;16.370;2024-02-14T07:23:01;99994.92;;;5.75;93.98
70488;BME280;57976;48.174;16.370;2024-02-14T07:25:06;99994.89;;;5.79;94.18
70488;BME280;57976;48.174;16.370;2024-02-14T07:27:12;99995.23;;;5.84;93.72
70488;BME280;57976;48.174;16.370;2024-02-14T07:29:17;99999.48;;;5.92;94.39
70488;BME280;57976;48.174;16.370;2024-02-14T07:31:22;100001.98;;;6.01;94.97
70488;BME280;57976;48.174;16.370;2024-02-14T07:33:26;100002.20;;;6.09;94.18
70488;BME280;57976;48.174;16.370;2024-02-14T07:35:31;99993.70;;;6.18;94.01
70488;BME280;57976;48.174;16.370;2024-02-14T07:37:36;99993.27;;;6.32;92.92
70488;BME280;57976;48.174;16.370;2024-02-14T07:39:41;99988.71;;;6.45;92.11
70488;BME280;57976;48.174;16.370;2024-02-14T07:41:46;99992.33;;;6.58;91.69
70488;BME280;57976;48.174;16.370;2024-02-14T07:43:51;99989.08;;;6.67;90.64
70488;BME280;57976;48.174;16.370;2024-02-14T07:45:55;99991.52;;;6.74;90.23
70488;BME280;57976;48.174;16.370;2024-02-14T07:48:03;99990.91;;;6.79;88.81
70488;BME280;57976;48.174;16.370;2024-02-14T07:50:09;99986.41;;;6.81;88.79
70488;BME280;57976;48.174;16.370;2024-02-14T07:52:14;99985.73;;;6.84;88.55
70488;BME280;57976;48.174;16.370;2024-02-14T07:54:19;99988.64;;;6.91;89.29
70488;BME280;57976;48.174;16.370;2024-02-14T07:56:23;99993.00;;;7.03;89.02
70488;BME280;57976;48.174;16.370;2024-02-14T07:58:28;99991.27;;;7.16;88.48
70488;BME280;57976;48.174;16.370;2024-02-14T08:00:33;99993.77;;;7.29;87.40
70488;BME280;57976;48.174;16.370;2024-02-14T08:02:38;99991.91;;;7.41;86.68
70488;BME280;57976;48.174;16.370;2024-02-14T08:04:43;99989.21;;;7.52;86.13
70488;BME280;57976;48.174;16.370;2024-02-14T08:06:48;99988.44;;;7.60;85.50
70488;BME280;57976;48.174;16.370;2024-02-14T08:08:53;99989.44;;;7.74;85.23
70488;BME280;57976;48.174;16.370;2024-02-14T08:10:58;99991.73;;;7.83;83.77
70488;BME280;57976;48.174;16.370;2024-02-14T08:13:03;99992.35;;;7.89;83.74
70488;BME280;57976;48.174;16.370;2024-02-14T08:15:09;99994.42;;;7.99;83.38
70488;BME280;57976;48.174;16.370;2024-02-14T08:17:14;99996.77;;;7.98;82.17
70488;BME280;57976;48.174;16.370;2024-02-14T08:19:19;99995.91;;;7.98;81.69
70488;BME280;57976;48.174;16.370;2024-02-14T08:21:24;99991.87;;;7.99;81.27
70488;BME280;57976;48.174;16.370;2024-02-14T08:23:34;99998.83;;;8.02;80.59
70488;BME280;57976;48.174;16.370;2024-02-14T08:25:39;99998.76;;;8.07;80.57
70488;BME280;57976;48.174;16.370;2024-02-14T08:27:44;99997.02;;;8.10;80.10
70488;BME280;57976;48.174;16.370;2024-02-14T08:29:49;99997.55;;;8.12;79.62
70488;BME280;57976;48.174;16.370;2024-02-14T08:31:54;99992.64;;;8.13;79.31
70488;BME280;57976;48.174;16.370;2024-02-14T08:33:59;99991.17;;;8.15;79.34
70488;BME280;57976;48.174;16.370;2024-02-14T08:36:05;99991.29;;;8.14;78.80
70488;BME280;57976;48.174;16.370;2024-02-14T08:38:11;99988.39;;;8.13;78.29
70488;BME280;57976;48.174;16.370;2024-02-14T08:40:16;99990.38;;;8.08;78.03
70488;BME280;57976;48.174;16.370;2024-02-14T08:42:21;99988.63;;;8.02;77.25
70488;BME280;57976;48.174;16.370;2024-02-14T08:44:26;99981.98;;;7.98;77.06
70488;BME280;57976;48.174;16.370;2024-02-14T08:46:31;99982.95;;;7.97;77.44
70488;BME280;57976;48.174;16.370;2024-02-14T08:48:36;99980.66;;;7.98;77.23
70488;BME280;57976;48.174;16.370;2024-02-14T08:50:41;99974.66;;;8.00;77.13
70488;BME280;57976;48.174;16.370;2024-02-14T08:52:46;99977.92;;;8.04;77.26
70488;BME280;57976;48.174;16.370;2024-02-14T08:54:51;99969.99;;;8.10;77.01
70488;BME280;57976;48.174;16.370;2024-02-14T08:56:57;99969.35;;;8.17;76.92
70488;BME280;57976;48.174;16.370;2024-02-14T08:59:02;99969.57;;;8.20;76.38
70488;BME280;57976;48.174;16.370;2024-02-14T09:01:07;99969.88;;;8.26;76.34
70488;BME280;57976;48.174;16.370;2024-02-14T09:03:19;99974.09;;;8.31;76.11
70488;BME280;57976;48.174;16.370;2024-02-14T09:05:24;99974.92;;;8.36;75.29
70488;BME280;57976;48.174;16.370;2024-02-14T09:07:29;99978.38;;;8.46;75.36
70488;BME280;57976;48.174;16.370;2024-02-14T09:09:34;99972.41;;;8.49;74.69
70488;BME280;57976;48.174;16.370;2024-02-14T09:11:38;99972.44;;;8.49;74.14
70488;BME280;57976;48.174;16.370;2024-02-14T09:13:43;99969.01;;;8.51;74.29
70488;BME280;57976;48.174;16.370;2024-02-14T09:15:48;99965.75;;;8.56;74.74
70488;BME280;57976;48.174;16.370;2024-02-14T09:17:53;99965.73;;;8.59;73.92
70488;BME280;57976;48.174;16.370;2024-02-14T09:19:58;99964.08;;;8.64;74.00
70488;BME280;57976;48.174;16.370;2024-02-14T09:22:04;99965.81;;;8.68;73.79
70488;BME280;57976;48.174;16.370;2024-02-14T09:24:09;99966.40;;;8.70;73.75
70488;BME280;57976;48.174;16.370;2024-02-14T09:26:15;99965.77;;;8.73;73.48
70488;BME280;57976;48.174;16.370;2024-02-14T09:28:22;99962.74;;;8.79;73.41
70488;BME280;57976;48.174;16.370;2024-02-14T09:30:27;99960.84;;;8.90;72.85
70488;BME280;57976;48.174;16.370;2024-02-14T09:32:42;99954.48;;;8.97;72.88
70488;BME280;57976;48.174;16.370;2024-02-14T09:34:47;99956.52;;;9.07;72.34
70488;BME280;57976;48.174;16.370;2024-02-14T09:36:52;99958.45;;;9.16;72.13
70488;BME280;57976;48.174;16.370;2024-02-14T09:38:57;99962.08;;;9.20;71.22
70488;BME280;57976;48.174;16.370;2024-02-14T09:41:09;99963.73;;;9.21;70.74
70488;BME280;57976;48.174;16.370;2024-02-14T09:43:28;99965.48;;;9.27;70.58
70488;BME280;57976;48.174;16.370;2024-02-14T09:45:37;99964.88;;;9.37;71.12
70488;BME280;57976;48.174;16.370;2024-02-14T09:47:42;99962.13;;;9.45;70.80
70488;BME280;57976;48.174;16.370;2024-02-14T09:49:48;99961.40;;;9.53;70.17
70488;BME280;57976;48.174;16.370;2024-02-14T09:51:54;99962.46;;;9.54;69.41
70488;BME280;57976;48.174;16.370;2024-02-14T09:54:01;99960.58;;;9.60;68.98
70488;BME280;57976;48.174;16.370;2024-02-14T09:56:07;99965.17;;;9.68;67.98
70488;BME280;57976;48.174;16.370;2024-02-14T09:58:13;99965.75;;;9.75;67.39
70488;BME280;57976;48.174;16.370;2024-02-14T10:00:19;99961.70;;;9.80;67.81
70488;BME280;57976;48.174;16.370;2024-02-14T10:02:24;99960.20;;;9.87;67.20
70488;BME280;57976;48.174;16.370;2024-02-14T10:04:29;99958.27;;;9.94;67.19
70488;BME280;57976;48.174;16.370;2024-02-14T10:06:34;99961.50;;;10.01;66.78
70488;BME280;57976;48.174;16.370;2024-02-14T10:08:42;99964.83;;;10.08;66.62
70488;BME280;57976;48.174;16.370;2024-02-14T10:11:02;99963.34;;;10.15;66.22
70488;BME280;57976;48.174;16.370;2024-02-14T10:13:07;99960.45;;;10.22;66.38
70488;BME280;57976;48.174;16.370;2024-02-14T10:15:12;99955.84;;;10.26;65.83
70488;BME280;57976;48.174;16.370;2024-02-14T10:17:21;99956.81;;;10.31;64.83
70488;BME280;57976;48.174;16.370;2024-02-14T10:19:25;99951.77;;;10.36;64.92
70488;BME280;57976;48.174;16.370;2024-02-14T10:21:31;99956.36;;;10.38;64.39
70488;BME280;57976;48.174;16.370;2024-02-14T10:23:36;99951.60;;;10.39;64.60
70488;BME280;57976;48.174;16.370;2024-02-14T10:25:41;99951.32;;;10.43;64.70
70488;BME280;57976;48.174;16.370;2024-02-14T10:27:47;99951.04;;;10.50;66.07
70488;BME280;57976;48.174;16.370;2024-02-14T10:29:51;99946.95;;;10.60;65.66
70488;BME280;57976;48.174;16.370;2024-02-14T10:31:58;99943.37;;;10.67;64.67
70488;BME280;57976;48.174;16.370;2024-02-14T10:34:04;99936.17;;;10.70;64.46
70488;BME280;57976;48.174;16.370;2024-02-14T10:36:13;99930.70;;;10.71;63.67
70488;BME280;57976;48.174;16.370;2024-02-14T10:38:19;99926.16;;;10.76;63.62
70488;BME280;57976;48.174;16.370;2024-02-14T10:40:24;99919.75;;;10.81;63.48
70488;BME280;57976;48.174;16.370;2024-02-14T10:42:30;99920.48;;;10.87;63.66
70488;BME280;57976;48.174;16.370;2024-02-14T10:44:36;99914.73;;;10.92;63.14
70488;BME280;57976;48.174;16.370;2024-02-14T10:46:41;99912.66;;;10.97;62.55
70488;BME280;57976;48.174;16.370;2024-02-14T10:48:48;99909.70;;;11.05;62.22
70488;BME280;57976;48.174;16.370;2024-02-14T10:50:55;99905.55;;;11.11;61.80
70488;BME280;57976;48.174;16.370;2024-02-14T10:53:05;99907.42;;;11.18;61.62
70488;BME280;57976;48.174;16.370;2024-02-14T10:55:12;99899.80;;;11.22;60.93
70488;BME280;57976;48.174;16.370;2024-02-14T10:57:18;99897.51;;;11.27;61.13
70488;BME280;57976;48.174;16.370;2024-02-14T10:59:24;99896.96;;;11.32;61.26
70488;BME280;57976;48.174;16.370;2024-02-14T11:01:31;99896.55;;;11.35;61.56
70488;BME280;57976;48.174;16.370;2024-02-14T11:03:36;99893.52;;;11.39;62.06